Time;durP1;ratioP1;P1;durP2;ratioP2;P2;SDS_P1;SDS_P2;PMS_P1;PMS_P2;Temp;Humidity;BMP_temperature;BMP_pressure;BME280_temperature;BME280_humidity;BME280_pressure;Samples;Min_cycle;Max_cycle;Signal;HPM_P1;HPM_P2
2022/08/28 00:00:55;;;;;;;11.03;10.13;;;;;;;17.38;100.00;96890.69;5010247;28;20405;-53
2022/08/28 00:03:23;;;;;;;10.07;9.17;;;;;;;17.39;100.00;96886.97;4959763;28;20224;-50
2022/08/28 00:05:52;;;;;;;10.77;9.97;;;;;;;17.38;100.00;96888.81;5002254;28;20275;-52
2022/08/28 00:08:25;;;;;;;11.03;10.03;;;;;;;17.32;100.00;96879.88;5014702;28;20212;-51
2022/08/28 00:10:53;;;;;;;11.03;9.73;;;;;;;17.32;100.00;96885.22;4987952;28;20799;-54
2022/08/28 00:13:24;;;;;;;14.33;10.70;;;;;;;17.33;100.00;96884.19;5004885;28;20764;-54
2022/08/28 00:15:55;;;;;;;10.67;9.67;;;;;;;17.38;100.00;96882.66;4997197;28;20461;-50
2022/08/28 00:18:24;;;;;;;11.03;10.13;;;;;;;17.33;100.00;96883.34;4941644;28;20293;-52
2022/08/28 00:20:52;;;;;;;11.93;10.97;;;;;;;17.31;100.00;96877.44;5008346;28;20603;-54
2022/08/28 00:23:24;;;;;;;12.13;10.93;;;;;;;17.29;100.00;96880.34;4949872;28;20276;-49
2022/08/28 00:26:05;;;;;;;11.67;10.63;;;;;;;17.36;100.00;96881.03;5003181;28;20204;-55
2022/08/28 00:28:32;;;;;;;12.30;11.00;;;;;;;17.35;100.00;96879.41;5002884;28;20282;-55
2022/08/28 00:31:01;;;;;;;11.70;10.60;;;;;;;17.30;100.00;96870.44;5008197;28;20240;-51
2022/08/28 00:33:32;;;;;;;11.37;10.33;;;;;;;17.24;100.00;96869.53;5003971;28;20333;-56
2022/08/28 00:36:02;;;;;;;11.93;10.90;;;;;;;17.24;100.00;96876.75;5008969;28;20204;-51
2022/08/28 00:38:31;;;;;;;11.63;10.53;;;;;;;17.24;100.00;96866.84;4957235;28;20337;-52
2022/08/28 00:41:02;;;;;;;11.20;10.10;;;;;;;17.34;100.00;96872.44;5005803;28;20209;-53
2022/08/28 00:43:37;;;;;;;12.17;11.03;;;;;;;17.23;100.00;96867.88;5005324;28;20361;-56
2022/08/28 00:46:09;;;;;;;11.70;10.60;;;;;;;17.18;100.00;96868.59;5006700;28;20669;-53
2022/08/28 00:48:38;;;;;;;12.03;10.83;;;;;;;17.20;100.00;96869.19;5008379;28;20240;-52
2022/08/28 00:53:56;;;;;;;11.70;10.60;;;;;;;17.15;100.00;96874.44;4962550;28;20634;-52
2022/08/28 00:56:26;;;;;;;14.30;12.60;;;;;;;17.15;100.00;96873.59;5002463;28;20614;-52
2022/08/28 00:58:56;;;;;;;12.43;11.27;;;;;;;17.16;100.00;96875.22;5008869;28;20225;-53
2022/08/28 01:01:24;;;;;;;11.80;10.80;;;;;;;17.14;100.00;96875.47;5004436;28;20208;-47
2022/08/28 01:03:53;;;;;;;12.70;11.60;;;;;;;17.19;100.00;96880.09;5004887;28;20249;-55
2022/08/28 01:06:21;;;;;;;13.07;11.80;;;;;;;17.12;100.00;96874.91;5006876;28;20680;-47
2022/08/28 01:08:52;;;;;;;16.67;12.00;;;;;;;17.14;100.00;96870.13;4957254;28;20220;-57
2022/08/28 01:11:22;;;;;;;12.53;11.43;;;;;;;17.14;100.00;96880.00;5004592;28;20622;-49
2022/08/28 01:13:53;;;;;;;14.03;12.73;;;;;;;17.06;100.00;96873.97;5005308;28;20311;-54
2022/08/28 01:16:23;;;;;;;12.30;11.30;;;;;;;17.06;100.00;96871.28;5001204;28;20299;-50
2022/08/28 01:19:01;;;;;;;14.00;12.17;;;;;;;17.10;100.00;96876.16;5007838;28;20223;-53
2022/08/28 01:21:33;;;;;;;12.13;11.13;;;;;;;17.14;100.00;96872.78;5000416;28;20273;-56
2022/08/28 01:24:06;;;;;;;12.80;11.70;;;;;;;17.13;100.00;96860.47;4959715;28;20224;-53
2022/08/28 01:26:34;;;;;;;12.67;11.50;;;;;;;17.05;100.00;96864.31;5003893;28;20659;-56
2022/08/28 01:29:02;;;;;;;11.63;10.77;;;;;;;17.06;100.00;96871.28;5008932;28;20224;-51
2022/08/28 01:31:31;;;;;;;13.03;11.67;;;;;;;17.12;100.00;96869.53;5004762;28;20824;-51
2022/08/28 01:34:00;;;;;;;12.13;10.73;;;;;;;17.06;100.00;96873.97;5010364;28;20212;-53
2022/08/28 01:36:29;;;;;;;12.13;10.83;;;;;;;17.09;100.00;96872.69;5001417;28;20348;-58
2022/08/28 01:39:08;;;;;;;13.23;12.03;;;;;;;17.06;100.00;96873.97;4971834;28;20319;-50
2022/08/28 01:41:39;;;;;;;13.27;11.90;;;;;;;17.00;100.00;96876.75;4966584;28;20348;-53
2022/08/28 01:44:08;;;;;;;11.90;11.00;;;;;;;16.92;100.00;96875.22;5009121;28;20297;-52
2022/08/28 01:46:36;;;;;;;13.93;12.70;;;;;;;16.97;100.00;96886.03;5001489;28;20348;-55
2022/08/28 01:49:07;;;;;;;14.13;12.97;;;;;;;16.98;100.00;96881.50;5002737;28;20524;-49
2022/08/28 01:51:36;;;;;;;13.53;12.13;;;;;;;16.90;100.00;96880.00;5006003;28;20215;-48
2022/08/28 01:54:07;;;;;;;12.97;11.77;;;;;;;16.91;100.00;96886.97;5006513;28;20409;-55
2022/08/28 01:56:36;;;;;;;14.20;12.93;;;;;;;16.88;100.00;96879.41;4950329;28;20765;-48
2022/08/28 01:59:07;;;;;;;16.80;12.40;;;;;;;16.86;100.00;96887.66;5002424;28;22589;-51
2022/08/28 02:01:36;;;;;;;13.97;12.67;;;;;;;16.92;100.00;96884.03;5003780;28;20276;-49
2022/08/28 02:04:05;;;;;;;13.60;12.30;;;;;;;16.87;100.00;96899.97;5005620;28;20882;-51
2022/08/28 02:06:33;;;;;;;14.00;12.70;;;;;;;16.90;100.00;96894.16;5009438;28;20256;-52
2022/08/28 02:09:02;;;;;;;14.27;12.83;;;;;;;16.88;100.00;96898.94;5005321;28;21301;-53
2022/08/28 02:11:31;;;;;;;14.07;12.87;;;;;;;16.86;100.00;96894.88;4960457;28;20883;-53
2022/08/28 02:14:01;;;;;;;13.50;12.40;;;;;;;16.81;100.00;96900.09;5005091;28;20979;-54
2022/08/28 02:16:29;;;;;;;14.60;13.17;;;;;;;16.83;100.00;96889.97;5007264;28;20251;-53
2022/08/28 02:18:58;;;;;;;13.93;12.73;;;;;;;16.83;100.00;96893.47;5006400;28;20221;-53
2022/08/28 02:21:26;;;;;;;15.10;13.10;;;;;;;16.78;100.00;96885.31;5003246;28;20292;-55
2022/08/28 02:23:54;;;;;;;14.53;13.23;;;;;;;16.77;100.00;96889.84;5001352;28;20228;-52
2022/08/28 02:26:23;;;;;;;14.20;13.00;;;;;;;16.75;100.00;96899.16;4958479;28;20303;-53
2022/08/28 02:28:53;;;;;;;15.23;13.70;;;;;;;16.76;100.00;96882.88;4988411;28;20373;-52
2022/08/28 02:31:21;;;;;;;14.83;13.47;;;;;;;16.78;100.00;96886.13;4940724;28;20423;-54
2022/08/28 02:33:49;;;;;;;14.50;13.30;;;;;;;16.77;100.00;96889.84;5009039;28;20208;-54
2022/08/28 02:36:18;;;;;;;14.77;13.47;;;;;;;16.72;100.00;96888.94;4976564;28;20232;-49
2022/08/28 02:38:47;;;;;;;14.90;13.53;;;;;;;16.71;100.00;96890.78;5008703;28;20312;-53
2022/08/28 02:41:16;;;;;;;15.10;13.90;;;;;;;16.71;100.00;96896.13;4970126;28;20270;-51
2022/08/28 02:43:44;;;;;;;15.07;13.83;;;;;;;16.72;100.00;96892.41;5011712;28;20205;-52
2022/08/28 02:46:14;;;;;;;14.80;13.40;;;;;;;16.70;100.00;96889.13;4956245;28;20228;-52
2022/08/28 02:48:42;;;;;;;15.53;13.97;;;;;;;16.75;100.00;96891.94;5013219;28;20295;-51
2022/08/28 02:51:13;;;;;;;15.73;14.33;;;;;;;16.71;100.00;96890.78;5009562;28;20213;-52
2022/08/28 02:53:42;;;;;;;14.97;13.30;;;;;;;16.73;100.00;96883.31;5012382;28;20200;-52
2022/08/28 02:56:11;;;;;;;15.17;13.57;;;;;;;16.67;100.00;96888.78;5009088;28;20266;-50
2022/08/28 02:58:40;;;;;;;15.13;13.63;;;;;;;16.63;100.00;96886.56;4983756;28;20240;-52
2022/08/28 03:01:10;;;;;;;15.50;13.97;;;;;;;16.64;100.00;96890.88;4959722;28;21953;-49
2022/08/28 03:03:41;;;;;;;14.47;13.20;;;;;;;16.67;100.00;96884.25;5006764;28;20235;-51
2022/08/28 03:06:11;;;;;;;15.00;13.53;;;;;;;16.67;100.00;96886.94;5007103;28;20240;-49
2022/08/28 03:08:41;;;;;;;15.00;13.60;;;;;;;16.67;100.00;96884.25;5009745;28;20216;-50
2022/08/28 03:11:09;;;;;;;14.33;13.13;;;;;;;16.62;100.00;96882.25;5009226;28;20327;-50
2022/08/28 03:13:37;;;;;;;14.87;13.57;;;;;;;16.60;100.00;96873.66;4989307;28;20296;-50
2022/08/28 03:16:06;;;;;;;14.77;13.37;;;;;;;16.62;100.00;96887.59;4957059;28;20319;-51
2022/08/28 03:18:35;;;;;;;16.07;14.63;;;;;;;16.64;100.00;96892.75;5010456;28;20201;-52
2022/08/28 03:21:05;;;;;;;15.73;14.27;;;;;;;16.62;100.00;96887.59;5007250;28;20204;-52
2022/08/28 03:23:33;;;;;;;16.90;15.20;;;;;;;16.56;100.00;96888.53;5009536;28;20292;-53
2022/08/28 03:26:04;;;;;;;15.40;14.00;;;;;;;16.57;100.00;96892.03;5010660;28;20247;-52
2022/08/28 03:28:34;;;;;;;15.87;14.27;;;;;;;16.62;100.00;96886.81;4981980;28;21434;-55
2022/08/28 03:31:03;;;;;;;16.07;14.50;;;;;;;16.58;100.00;96893.66;4957572;28;20307;-52
2022/08/28 03:33:32;;;;;;;15.43;13.73;;;;;;;16.58;100.00;96897.13;5006466;28;20200;-49
2022/08/28 03:36:01;;;;;;;16.57;14.93;;;;;;;16.59;100.00;96893.41;5010447;28;20216;-54
2022/08/28 03:38:33;;;;;;;17.13;15.57;;;;;;;16.55;100.00;96886.91;5007963;28;20208;-50
2022/08/28 03:41:01;;;;;;;18.37;14.97;;;;;;;16.59;100.00;96889.94;5010708;28;20211;-52
2022/08/28 03:43:30;;;;;;;15.97;14.57;;;;;;;16.57;100.00;96887.50;5008017;28;20741;-54
2022/08/28 03:46:01;;;;;;;16.63;14.77;;;;;;;16.54;100.00;96889.81;4909692;28;20232;-50
2022/08/28 03:48:32;;;;;;;16.97;15.57;;;;;;;16.55;100.00;96894.13;5007575;28;20213;-54
2022/08/28 03:51:01;;;;;;;16.20;14.80;;;;;;;16.58;100.00;96891.78;5004065;28;20211;-47
2022/08/28 03:53:30;;;;;;;15.17;13.83;;;;;;;16.60;100.00;96891.56;5011914;28;21495;-47
2022/08/28 03:56:00;;;;;;;16.53;15.03;;;;;;;16.55;100.00;96892.25;5004765;28;20576;-47
2022/08/28 03:58:28;;;;;;;15.87;14.57;;;;;;;16.55;100.00;96904.81;5005860;28;20246;-52
2022/08/28 04:00:57;;;;;;;16.63;15.07;;;;;;;16.56;100.00;96903.78;4943164;28;20270;-50
2022/08/28 04:03:25;;;;;;;16.33;14.73;;;;;;;16.55;100.00;96902.94;4997805;28;20279;-51
2022/08/28 04:05:54;;;;;;;15.40;13.90;;;;;;;16.52;100.00;96897.25;5003555;28;20325;-53
2022/08/28 04:08:22;;;;;;;16.13;14.47;;;;;;;16.52;100.00;96899.94;5003552;28;20239;-48
2022/08/28 04:10:51;;;;;;;16.00;14.40;;;;;;;16.53;100.00;96899.69;5000452;28;20231;-52
2022/08/28 04:13:22;;;;;;;16.27;14.87;;;;;;;16.55;100.00;96905.63;4968736;28;23010;-50
2022/08/28 04:15:58;;;;;;;17.10;15.50;;;;;;;16.50;100.00;96902.81;4977892;28;20896;-53
2022/08/28 04:18:26;;;;;;;16.27;14.57;;;;;;;16.57;100.00;96913.44;4954627;28;20491;-50
2022/08/28 04:20:59;;;;;;;16.57;15.07;;;;;;;16.56;100.00;96912.59;4996926;28;20215;-50
2022/08/28 04:23:28;;;;;;;16.37;14.97;;;;;;;16.53;100.00;96920.28;4975429;28;20259;-52
2022/08/28 04:25:56;;;;;;;16.57;14.73;;;;;;;16.48;100.00;96918.28;4970134;28;20252;-53
2022/08/28 04:28:27;;;;;;;16.77;15.27;;;;;;;16.64;100.00;96922.97;5007773;28;20204;-52
2022/08/28 04:30:55;;;;;;;17.13;15.43;;;;;;;16.59;100.00;96927.38;4952717;28;20781;-52
2022/08/28 04:33:24;;;;;;;19.23;17.33;;;;;;;16.49;100.00;96919.91;4956516;28;20244;-51
2022/08/28 04:35:53;;;;;;;18.40;16.43;;;;;;;16.52;100.00;96919.47;4982570;28;20232;-50
2022/08/28 04:38:22;;;;;;;18.50;16.90;;;;;;;16.55;100.00;96926.22;4958021;28;20732;-52
2022/08/28 04:40:50;;;;;;;18.40;16.67;;;;;;;16.47;100.00;96916.66;4976696;28;22061;-54
2022/08/28 04:43:20;;;;;;;18.20;16.30;;;;;;;16.47;100.00;96927.34;4981057;28;21043;-51
2022/08/28 04:45:50;;;;;;;20.03;17.97;;;;;;;16.48;100.00;96926.31;5005621;28;20331;-56
2022/08/28 04:48:18;;;;;;;19.37;16.90;;;;;;;16.46;100.00;96923.84;5006693;28;20287;-53
2022/08/28 04:50:49;;;;;;;19.07;17.37;;;;;;;16.47;100.00;96928.16;4969907;28;20943;-52
2022/08/28 04:53:19;;;;;;;18.70;17.10;;;;;;;16.56;100.00;96925.19;4957357;28;20295;-53
2022/08/28 04:55:50;;;;;;;20.33;17.97;;;;;;;16.52;100.00;96930.16;4990474;28;20708;-49
2022/08/28 04:58:22;;;;;;;18.80;16.97;;;;;;;16.48;100.00;96937.84;5005013;28;20222;-55
2022/08/28 05:00:53;;;;;;;18.47;16.73;;;;;;;16.55;100.00;96932.38;4980269;28;20215;-50
2022/08/28 05:03:22;;;;;;;18.30;16.57;;;;;;;16.53;100.00;96936.34;5001920;28;20227;-50
2022/08/28 05:05:52;;;;;;;18.03;16.30;;;;;;;16.48;100.00;96928.97;4994101;28;20676;-52
2022/08/28 05:08:23;;;;;;;19.23;15.87;;;;;;;16.59;100.00;96938.09;4954352;28;20326;-49
2022/08/28 05:10:52;;;;;;;19.43;16.00;;;;;;;16.65;100.00;96942.50;5006984;28;20290;-52
2022/08/28 05:13:20;;;;;;;17.83;15.43;;;;;;;16.61;100.00;96942.16;4950384;28;20212;-50
2022/08/28 05:15:50;;;;;;;17.30;15.87;;;;;;;16.65;100.00;96937.16;4982686;28;20231;-52
2022/08/28 05:18:23;;;;;;;16.43;14.80;;;;;;;16.67;100.00;96937.75;4992954;28;20209;-53
2022/08/28 05:20:51;;;;;;;16.87;15.20;;;;;;;16.79;100.00;96938.59;4976024;28;20320;-50
2022/08/28 05:23:20;;;;;;;15.60;14.13;;;;;;;16.81;100.00;96945.56;4942315;28;20216;-54
2022/08/28 05:25:52;;;;;;;17.00;15.37;;;;;;;16.85;100.00;96954.75;5001988;28;20212;-49
2022/08/28 05:28:22;;;;;;;14.97;13.77;;;;;;;16.87;100.00;96944.66;5008590;28;20289;-51
2022/08/28 05:30:50;;;;;;;15.90;14.40;;;;;;;16.92;100.00;96953.63;4977132;28;20255;-52
2022/08/28 05:33:20;;;;;;;14.57;13.17;;;;;;;16.95;100.00;96954.19;5008374;28;20282;-53
2022/08/28 05:35:48;;;;;;;14.83;12.43;;;;;;;16.95;100.00;96955.03;5003455;28;20205;-47
2022/08/28 05:38:17;;;;;;;13.50;12.33;;;;;;;17.05;100.00;96951.81;4925884;28;20300;-52
2022/08/28 05:40:47;;;;;;;13.40;12.20;;;;;;;17.07;100.00;96961.22;4999354;28;20227;-51
2022/08/28 05:43:17;;;;;;;14.67;13.30;;;;;;;17.04;100.00;96964.38;4990262;28;20219;-53
2022/08/28 05:45:45;;;;;;;13.80;12.70;;;;;;;17.06;100.00;96970.31;4987097;28;20200;-51
2022/08/28 05:48:14;;;;;;;14.63;13.33;;;;;;;17.11;100.00;96974.97;5002911;28;20329;-49
2022/08/28 05:50:44;;;;;;;13.73;12.57;;;;;;;17.19;100.00;96971.97;4980796;28;20235;-49
2022/08/28 05:53:16;;;;;;;13.47;12.37;;;;;;;17.23;100.00;96974.97;4958207;28;20842;-55
2022/08/28 05:55:44;;;;;;;14.20;12.77;;;;;;;17.14;100.00;96971.84;4998455;28;20228;-50
2022/08/28 05:58:33;;;;;;;14.40;12.87;;;;;;;17.23;100.00;96974.97;4999770;28;20703;-53
2022/08/28 06:01:10;;;;;;;13.60;12.40;;;;;;;17.23;100.00;96976.84;4972411;28;20208;-52
2022/08/28 06:03:39;;;;;;;12.33;11.33;;;;;;;17.15;100.00;96964.59;5000466;28;21088;-51
2022/08/28 06:06:10;;;;;;;13.27;11.90;;;;;;;17.19;100.00;96982.66;4977384;28;20211;-49
2022/08/28 06:08:39;;;;;;;14.50;13.07;;;;;;;17.13;100.00;96975.56;4970185;28;20204;-49
2022/08/28 06:11:27;;;;;;;13.00;11.53;;;;;;;17.21;100.00;96987.78;4996001;28;20677;-51
2022/08/28 06:13:59;;;;;;;13.70;12.40;;;;;;;17.30;100.00;96983.72;4976197;28;20235;-52
2022/08/28 06:16:28;;;;;;;12.50;11.50;;;;;;;17.30;100.00;96977.53;4975161;28;20212;-54
2022/08/28 06:18:57;;;;;;;13.63;12.33;;;;;;;17.33;100.00;96983.25;4982286;28;20472;-53
2022/08/28 06:21:27;;;;;;;13.57;12.47;;;;;;;17.46;100.00;96987.56;4988882;28;20256;-54
2022/08/28 06:23:55;;;;;;;14.10;12.70;;;;;;;17.52;100.00;96993.84;4985530;28;20241;-54
2022/08/28 06:26:23;;;;;;;13.23;11.83;;;;;;;17.59;100.00;96986.50;4952536;28;20422;-54
2022/08/28 06:28:53;;;;;;;14.47;11.70;;;;;;;17.75;100.00;96978.81;5002136;28;20801;-54
2022/08/28 06:31:22;;;;;;;12.37;11.13;;;;;;;17.99;100.00;96976.91;4981892;28;20217;-56
2022/08/28 06:33:54;;;;;;;12.17;11.17;;;;;;;18.03;100.00;96982.63;4999728;28;20355;-54
2022/08/28 06:36:23;;;;;;;12.03;10.80;;;;;;;18.02;100.00;96979.13;4998282;28;20304;-49
2022/08/28 06:38:54;;;;;;;11.67;10.47;;;;;;;17.81;100.00;96969.81;5002920;28;20865;-54
2022/08/28 06:41:22;;;;;;;11.77;10.47;;;;;;;17.96;100.00;96974.69;4954718;28;20307;-53
2022/08/28 06:43:51;;;;;;;11.90;10.83;;;;;;;17.82;100.00;96976.81;4946655;28;20368;-54
2022/08/28 06:46:20;;;;;;;11.40;10.40;;;;;;;17.71;100.00;96989.16;4985626;28;20286;-52
2022/08/28 06:48:49;;;;;;;11.13;9.97;;;;;;;17.73;100.00;96992.44;4979247;28;20351;-50
2022/08/28 06:51:19;;;;;;;10.77;9.97;;;;;;;17.80;100.00;96992.31;4975209;28;20298;-51
2022/08/28 06:53:56;;;;;;;11.57;10.67;;;;;;;17.73;100.00;96988.94;4996973;28;20239;-47
2022/08/28 06:56:25;;;;;;;11.67;10.67;;;;;;;17.77;100.00;96993.59;4997370;28;20209;-50
2022/08/28 06:58:56;;;;;;;11.87;10.70;;;;;;;17.61;100.00;96994.31;4968391;28;20516;-55
2022/08/28 07:01:27;;;;;;;11.23;10.23;;;;;;;17.70;100.00;96994.78;4984263;28;20236;-50
2022/08/28 07:04:00;;;;;;;11.20;10.30;;;;;;;17.92;100.00;96995.78;4955618;28;20855;-51
2022/08/28 07:06:32;;;;;;;11.00;10.00;;;;;;;18.22;100.00;97002.84;4964043;28;20208;-46
2022/08/28 07:09:05;;;;;;;11.20;10.30;;;;;;;18.30;100.00;96988.28;5000829;28;20220;-52
2022/08/28 07:11:36;;;;;;;11.13;10.13;;;;;;;18.57;100.00;96994.94;5000748;28;20257;-50
2022/08/28 07:14:05;;;;;;;10.30;9.40;;;;;;;18.68;100.00;97002.09;4935105;28;20208;-51
2022/08/28 07:16:37;;;;;;;10.33;9.43;;;;;;;18.92;100.00;97001.97;4996628;28;20228;-52
2022/08/28 07:19:06;;;;;;;10.53;9.60;;;;;;;19.06;100.00;97010.56;5000863;28;20221;-49
2022/08/28 07:21:36;;;;;;;9.87;9.00;;;;;;;19.27;100.00;97008.19;4951903;28;20220;-49
2022/08/28 07:24:09;;;;;;;9.90;8.93;;;;;;;19.37;100.00;97005.69;5002109;28;20218;-48
2022/08/28 07:26:39;;;;;;;11.40;9.40;;;;;;;19.49;100.00;97008.28;5008396;28;20211;-51
2022/08/28 07:29:08;;;;;;;9.07;8.37;;;;;;;19.58;100.00;96997.94;4968561;28;20223;-55
2022/08/28 07:31:42;;;;;;;9.80;8.80;;;;;;;19.71;100.00;97010.22;5005464;28;20204;-51
2022/08/28 07:34:13;;;;;;;10.80;9.30;;;;;;;19.73;100.00;97008.09;5007877;28;20324;-54
2022/08/28 07:36:42;;;;;;;9.30;8.50;;;;;;;19.86;100.00;97005.03;4973521;28;20213;-57
2022/08/28 07:39:14;;;;;;;10.07;8.53;;;;;;;19.73;100.00;97011.59;4994914;28;20240;-55
2022/08/28 07:41:42;;;;;;;8.73;7.93;;;;;;;19.66;100.00;97010.94;5010445;28;20213;-58
2022/08/28 07:47:01;;;;;;;8.53;7.47;;;;;;;19.74;100.00;97017.78;5011959;28;20205;-54
2022/08/28 07:49:30;;;;;;;9.83;7.70;;;;;;;19.65;100.00;97017.38;5005851;28;20268;-51
2022/08/28 07:51:58;;;;;;;7.97;7.33;;;;;;;19.31;100.00;97022.78;4974847;28;20512;-53
2022/08/28 07:54:28;;;;;;;8.60;7.80;;;;;;;19.27;100.00;97025.16;5008713;28;20287;-53
2022/08/28 07:56:56;;;;;;;7.87;7.23;;;;;;;19.55;100.00;97020.75;5004484;28;20200;-51
2022/08/28 07:59:25;;;;;;;9.83;7.73;;;;;;;19.85;100.00;97019.53;4948003;28;20309;-55
2022/08/28 08:01:54;;;;;;;8.33;7.53;;;;;;;19.61;100.00;97025.13;5009010;28;20315;-54
2022/08/28 08:04:23;;;;;;;9.20;7.63;;;;;;;19.65;100.00;97030.81;5011432;28;21019;-49
2022/08/28 08:06:52;;;;;;;8.20;7.37;;;;;;;19.59;100.00;97026.44;4994625;28;20274;-52
2022/08/28 08:09:25;;;;;;;8.20;7.47;;;;;;;19.68;100.00;97033.00;4996926;28;20306;-53
2022/08/28 08:11:56;;;;;;;8.50;7.67;;;;;;;19.67;100.00;97039.44;5012089;28;20216;-51
2022/08/28 08:14:24;;;;;;;8.33;7.50;;;;;;;19.68;100.00;97035.69;4949365;28;20301;-53
2022/08/28 08:16:53;;;;;;;8.37;7.77;;;;;;;19.77;100.00;97036.09;5005837;28;20287;-54
2022/08/28 08:19:21;;;;;;;8.60;7.83;;;;;;;19.67;100.00;97036.75;5016480;28;20288;-58
2022/08/28 08:21:51;;;;;;;8.07;7.40;;;;;;;19.59;100.00;97039.88;4973816;28;20817;-52
2022/08/28 08:24:24;;;;;;;8.17;6.80;;;;;;;19.74;100.00;97040.09;4995312;28;20653;-57
2022/08/28 08:26:57;;;;;;;7.23;6.53;;;;;;;19.79;100.00;97042.03;5013621;28;20212;-57
2022/08/28 08:29:30;;;;;;;9.70;6.67;;;;;;;19.83;100.00;97037.78;4992718;28;20232;-54
2022/08/28 08:32:04;;;;;;;8.03;6.43;;;;;;;20.30;100.00;97044.63;4988070;28;20243;-54
2022/08/28 08:34:34;;;;;;;7.20;6.50;;;;;;;20.11;100.00;97044.13;4989637;28;20218;-53
2022/08/28 08:37:04;;;;;;;7.50;6.80;;;;;;;20.29;100.00;97050.28;4960140;28;20760;-54
2022/08/28 08:39:40;;;;;;;7.07;6.47;;;;;;;20.38;100.00;97030.72;4994778;28;20248;-55
2022/08/28 08:42:19;;;;;;;9.23;7.47;;;;;;;19.97;100.00;97049.03;4993755;28;20220;-55
2022/08/28 08:44:48;;;;;;;8.10;7.30;;;;;;;20.10;100.00;97039.81;4990846;28;20208;-56
2022/08/28 08:47:21;;;;;;;8.43;7.73;;;;;;;20.15;100.00;97039.88;4979976;28;20201;-55
2022/08/28 08:49:52;;;;;;;7.07;6.57;;;;;;;20.15;100.00;97047.94;4954383;28;20325;-56
2022/08/28 08:52:38;;;;;;;7.57;6.87;;;;;;;20.59;100.00;97049.81;4990477;28;20208;-54
2022/08/28 08:55:18;;;;;;;7.50;6.90;;;;;;;20.78;100.00;97028.75;4991970;28;20205;-55
2022/08/28 08:57:51;;;;;;;7.47;6.57;;;;;;;20.98;100.00;97048.88;4990202;28;21599;-53
2022/08/28 09:00:21;;;;;;;11.63;7.37;;;;;;;21.15;100.00;97047.97;4977712;28;20229;-55
2022/08/28 09:02:54;;;;;;;8.23;6.83;;;;;;;21.57;100.00;97054.50;5003939;28;20208;-49
2022/08/28 09:05:26;;;;;;;8.13;7.43;;;;;;;21.15;100.00;97064.13;4961900;28;20216;-54
2022/08/28 09:07:57;;;;;;;7.63;7.03;;;;;;;21.67;100.00;97065.41;5007551;28;20227;-52
2022/08/28 09:10:31;;;;;;;8.33;7.57;;;;;;;21.44;100.00;97063.84;5005405;28;20229;-56
2022/08/28 09:13:05;;;;;;;8.10;7.50;;;;;;;21.52;100.00;97063.38;5003549;28;20259;-53
2022/08/28 09:15:36;;;;;;;9.53;7.87;;;;;;;21.35;100.00;97068.88;4976376;28;20267;-54
2022/08/28 09:18:12;;;;;;;9.70;7.57;;;;;;;21.60;100.00;97067.47;5006398;28;20208;-52
2022/08/28 09:20:41;;;;;;;7.80;7.00;;;;;;;21.07;100.00;97068.09;4934570;28;20779;-58
2022/08/28 09:23:11;;;;;;;7.90;7.13;;;;;;;21.00;100.00;97064.78;4985111;28;20212;-57
2022/08/28 09:25:51;;;;;;;9.13;6.83;;;;;;;21.32;100.00;97070.19;5004327;28;20266;-59
2022/08/28 09:28:24;;;;;;;8.33;7.17;;;;;;;21.30;100.00;97072.34;4998906;28;20228;-56
2022/08/28 09:31:07;;;;;;;8.93;8.03;;;;;;;21.27;100.00;97070.16;5006292;28;20679;-52
2022/08/28 09:33:43;;;;;;;8.37;7.30;;;;;;;21.19;100.00;97067.94;4986196;28;20763;-55
2022/08/28 09:36:28;;;;;;;10.67;7.20;;;;;;;20.79;100.00;97067.28;4950460;28;20284;-52
2022/08/28 09:39:09;;;;;;;7.63;6.97;;;;;;;20.80;100.00;97077.78;4993681;28;20320;-55
2022/08/28 09:44:28;;;;;;;7.83;7.10;;;;;;;21.00;100.00;97084.44;4994054;28;20227;-54
2022/08/28 09:46:56;;;;;;;8.37;7.67;;;;;;;21.01;100.00;97075.31;4967871;28;20258;-56
2022/08/28 09:49:27;;;;;;;8.10;6.67;;;;;;;20.98;100.00;97083.09;5014777;28;20301;-51
2022/08/28 09:51:58;;;;;;;7.23;6.60;;;;;;;21.24;100.00;97078.75;4953426;28;20689;-54
2022/08/28 09:54:32;;;;;;;8.23;7.53;;;;;;;20.92;100.00;97077.66;4996293;28;20269;-54
2022/08/28 09:57:02;;;;;;;7.47;6.80;;;;;;;20.99;100.00;97085.50;4983579;28;20266;-53
2022/08/28 09:59:31;;;;;;;7.63;6.80;;;;;;;20.91;100.00;97088.66;5004095;28;20247;-55
2022/08/28 10:02:10;;;;;;;8.23;7.53;;;;;;;20.41;100.00;97080.53;4975191;28;20277;-51
2022/08/28 10:04:48;;;;;;;8.00;7.17;;;;;;;20.71;100.00;97083.84;4984717;28;20196;-52
2022/08/28 10:07:24;;;;;;;6.97;6.37;;;;;;;20.81;100.00;97079.44;4947537;28;20220;-53
2022/08/28 10:09:58;;;;;;;7.97;7.27;;;;;;;20.89;100.00;97085.41;5003753;28;20348;-54
2022/08/28 10:12:34;;;;;;;9.77;8.90;;;;;;;21.07;100.00;97084.25;4982235;28;20251;-53
2022/08/28 10:15:11;;;;;;;7.50;6.90;;;;;;;21.23;100.00;97090.59;4986099;28;21307;-55
2022/08/28 10:17:49;;;;;;;7.53;6.97;;;;;;;21.68;100.00;97091.28;4978699;28;20236;-55
2022/08/28 10:20:20;;;;;;;6.70;5.97;;;;;;;21.57;100.00;97098.44;4987284;28;21511;-56
2022/08/28 10:22:54;;;;;;;7.13;6.53;;;;;;;21.50;100.00;97089.75;4946937;28;20340;-55
2022/08/28 10:25:28;;;;;;;7.10;6.40;;;;;;;21.62;100.00;97092.28;5005560;28;20204;-52
2022/08/28 10:28:06;;;;;;;9.10;6.97;;;;;;;21.89;100.00;97086.03;5007608;28;20230;-56
2022/08/28 10:30:38;;;;;;;7.87;7.03;;;;;;;21.62;100.00;97090.41;5007614;28;20232;-54
2022/08/28 10:33:23;;;;;;;7.30;6.70;;;;;;;21.54;100.00;97094.38;4999352;28;20296;-53
2022/08/28 10:35:53;;;;;;;7.07;6.47;;;;;;;22.01;100.00;97096.63;4988145;28;20340;-54
2022/08/28 10:38:27;;;;;;;7.37;6.47;;;;;;;21.66;100.00;97088.84;4964455;28;20487;-51
2022/08/28 10:41:00;;;;;;;6.77;6.17;;;;;;;21.74;100.00;97092.94;4987337;28;20201;-53
2022/08/28 10:43:32;;;;;;;7.97;6.97;;;;;;;22.35;100.00;97085.47;5008998;28;20684;-55
2022/08/28 10:46:04;;;;;;;7.03;6.43;;;;;;;22.85;100.00;97085.97;5009803;28;20266;-53
2022/08/28 10:48:38;;;;;;;6.93;5.67;;;;;;;23.08;100.00;97083.84;4995883;28;20903;-58
2022/08/28 10:51:13;;;;;;;6.20;5.67;;;;;;;23.22;100.00;97086.84;4981595;28;20479;-53
2022/08/28 10:53:46;;;;;;;7.13;6.43;;;;;;;23.19;100.00;97081.97;4960790;28;20208;-57
2022/08/28 10:56:17;;;;;;;6.27;5.77;;;;;;;22.96;100.00;97089.50;4947033;28;21830;-51
2022/08/28 10:58:48;;;;;;;6.43;5.70;;;;;;;22.63;100.00;97086.16;4987906;28;20236;-54
2022/08/28 11:01:27;;;;;;;6.90;6.20;;;;;;;22.57;100.00;97079.94;4995204;28;20462;-59
2022/08/28 11:03:59;;;;;;;6.03;5.47;;;;;;;22.88;100.00;97081.91;4991048;28;20208;-57
2022/08/28 11:06:36;;;;;;;6.00;5.40;;;;;;;23.43;100.00;97079.56;5012441;28;20955;-54
2022/08/28 11:09:25;;;;;;;6.23;5.67;;;;;;;23.50;100.00;97090.97;5009081;28;20749;-56
2022/08/28 11:11:57;;;;;;;6.03;5.60;;;;;;;23.72;100.00;97095.25;4971941;28;20216;-56
2022/08/28 11:14:33;;;;;;;6.70;6.10;;;;;;;23.11;100.00;97089.53;5008933;28;20236;-55
2022/08/28 11:17:36;;;;;;;5.93;5.43;;;;;;;22.91;100.00;97092.16;5009118;28;20197;-54
2022/08/28 11:20:15;;;;;;;6.13;5.10;;;;;;;23.22;100.00;97092.25;4988514;28;20610;-61
2022/08/28 11:22:49;;;;;;;6.47;5.83;;;;;;;23.85;100.00;97088.50;5008013;28;20220;-57
2022/08/28 11:25:23;;;;;;;7.27;5.60;;;;;;;23.76;100.00;97090.13;5003616;28;20254;-53
2022/08/28 11:28:14;;;;;;;6.70;6.20;;;;;;;24.23;98.93;97088.16;4971654;28;20222;-57
2022/08/28 11:30:46;;;;;;;7.53;5.17;;;;;;;24.81;97.40;97076.88;5015486;28;20239;-56
2022/08/28 11:33:36;;;;;;;6.77;6.17;;;;;;;25.54;87.82;97088.06;5008927;28;20331;-55
2022/08/28 11:36:10;;;;;;;6.13;5.73;;;;;;;26.00;77.83;97092.25;4972020;28;20332;-55
2022/08/28 11:39:22;;;;;;;6.70;5.70;;;;;;;26.19;78.72;97083.41;5003022;28;20220;-55
2022/08/28 11:42:38;;;;;;;5.93;5.23;;;;;;;25.25;84.80;97090.69;4994326;28;20213;-57